createdAt,value
2018-11-06T00:01:10.514Z,6.30
2018-11-06T00:03:43.813Z,6.30
2018-11-06T00:06:11.923Z,6.30
2018-11-06T00:08:39.473Z,6.30
2018-11-06T00:11:08.053Z,6.20
2018-11-06T00:13:35.928Z,6.20
2018-11-06T00:16:03.786Z,6.20
2018-11-06T00:18:31.316Z,6.20
2018-11-06T00:20:58.937Z,6.20
2018-11-06T00:23:26.526Z,6.20
2018-11-06T00:25:54.143Z,6.10
2018-11-06T00:28:21.784Z,6.20
2018-11-06T00:30:49.370Z,6.20
2018-11-06T00:33:16.972Z,6.20
2018-11-06T00:35:44.557Z,6.10
2018-11-06T00:38:12.152Z,6.20
2018-11-06T00:40:39.806Z,6.10
2018-11-06T00:43:07.397Z,6.10
2018-11-06T00:45:35.088Z,6.10
2018-11-06T00:48:02.670Z,6.10
2018-11-06T00:50:30.306Z,6.00
2018-11-06T00:52:57.901Z,6.00
2018-11-06T00:55:25.533Z,6.00
2018-11-06T00:57:53.051Z,6.00
2018-11-06T01:00:20.641Z,6.00
2018-11-06T01:02:48.558Z,6.00
2018-11-06T01:05:16.858Z,6.00
2018-11-06T01:07:46.884Z,6.00
2018-11-06T01:10:14.565Z,6.00
2018-11-06T01:12:42.168Z,6.00
2018-11-06T01:15:12.981Z,6.00
2018-11-06T01:17:41.307Z,5.90
2018-11-06T01:20:11.349Z,5.90
2018-11-06T01:22:39.071Z,5.90
2018-11-06T01:25:07.438Z,5.90
2018-11-06T01:27:35.056Z,5.80
2018-11-06T01:30:02.815Z,5.80
2018-11-06T01:32:30.507Z,5.80
2018-11-06T01:34:58.087Z,5.80
2018-11-06T01:37:25.664Z,5.80
2018-11-06T01:39:53.248Z,5.70
2018-11-06T01:42:20.874Z,5.70
2018-11-06T01:44:48.472Z,5.70
2018-11-06T01:47:16.046Z,5.70
2018-11-06T01:49:43.618Z,5.60
2018-11-06T01:52:11.216Z,5.60
2018-11-06T01:54:38.831Z,5.60
2018-11-06T01:57:06.450Z,5.60
2018-11-06T01:59:34.055Z,5.50
2018-11-06T02:02:01.709Z,5.60
2018-11-06T02:04:29.395Z,5.60
2018-11-06T02:06:57.060Z,5.60
2018-11-06T02:09:24.682Z,5.70
2018-11-06T02:11:52.353Z,5.60
2018-11-06T02:14:20.041Z,5.70
2018-11-06T02:16:47.658Z,5.60
2018-11-06T02:19:15.285Z,5.60
2018-11-06T02:21:42.982Z,5.60
2018-11-06T02:24:10.662Z,5.60
2018-11-06T02:26:38.315Z,5.50
2018-11-06T02:29:06.188Z,5.50
2018-11-06T02:31:33.830Z,5.50
2018-11-06T02:34:01.477Z,5.50
2018-11-06T02:36:29.040Z,5.50
2018-11-06T02:38:56.627Z,5.50
2018-11-06T02:41:24.156Z,5.50
2018-11-06T02:43:51.753Z,5.40
2018-11-06T02:46:19.325Z,5.40
2018-11-06T02:48:46.894Z,5.40
2018-11-06T02:51:14.488Z,5.40
2018-11-06T02:53:42.158Z,5.40
2018-11-06T02:56:09.816Z,5.30
2018-11-06T02:58:37.440Z,5.30
2018-11-06T03:01:05.501Z,5.30
2018-11-06T03:03:38.882Z,5.30
2018-11-06T03:06:06.541Z,5.30
2018-11-06T03:08:34.094Z,5.30
2018-11-06T03:11:01.697Z,5.30
2018-11-06T03:13:29.314Z,5.30
2018-11-06T03:15:56.858Z,5.30
2018-11-06T03:18:24.439Z,5.30
2018-11-06T03:20:52.077Z,5.30
2018-11-06T03:23:19.746Z,5.30
2018-11-06T03:25:47.439Z,5.30
2018-11-06T03:28:15.006Z,5.30
2018-11-06T03:30:42.608Z,5.40
2018-11-06T03:33:10.144Z,5.30
2018-11-06T03:35:37.752Z,5.30
2018-11-06T03:38:05.334Z,5.30
2018-11-06T03:40:32.969Z,5.30
2018-11-06T03:43:00.525Z,5.30
2018-11-06T03:45:28.168Z,5.30
2018-11-06T03:47:55.809Z,5.20
2018-11-06T03:50:23.435Z,5.20
2018-11-06T03:52:51.084Z,5.20
2018-11-06T03:55:18.633Z,5.20
2018-11-06T03:57:46.238Z,5.20
2018-11-06T04:00:14.669Z,5.20
2018-11-06T04:02:42.918Z,5.20
2018-11-06T04:05:11.155Z,5.20
2018-11-06T04:07:38.712Z,5.20
2018-11-06T04:10:07.680Z,5.10
2018-11-06T04:12:35.258Z,5.10
2018-11-06T04:15:02.902Z,5.10
2018-11-06T04:17:30.509Z,5.10
2018-11-06T04:19:58.090Z,5.10
2018-11-06T04:22:25.678Z,5.10
2018-11-06T04:24:53.390Z,5.10
2018-11-06T04:27:20.969Z,5.10
2018-11-06T04:29:48.566Z,5.00
2018-11-06T04:32:16.070Z,5.00
2018-11-06T04:34:43.695Z,5.00
2018-11-06T04:37:11.291Z,5.00
2018-11-06T04:39:38.868Z,5.00
2018-11-06T04:42:06.473Z,5.10
2018-11-06T04:44:34.102Z,5.20
2018-11-06T04:47:01.704Z,5.20
2018-11-06T04:49:29.464Z,5.20
2018-11-06T04:51:57.051Z,5.30
2018-11-06T04:54:24.653Z,5.20
2018-11-06T04:56:59.042Z,5.30
2018-11-06T04:59:26.634Z,5.30
2018-11-06T05:01:54.222Z,5.30
2018-11-06T05:04:21.736Z,5.20
2018-11-06T05:06:49.401Z,5.20
2018-11-06T05:09:17.004Z,5.20
2018-11-06T05:11:44.681Z,5.20
2018-11-06T05:14:12.267Z,5.20
2018-11-06T05:16:39.821Z,5.10
2018-11-06T05:19:07.377Z,5.10
2018-11-06T05:21:35.019Z,5.10
2018-11-06T05:24:02.684Z,5.00
2018-11-06T05:26:30.358Z,5.00
2018-11-06T05:28:57.912Z,5.00
2018-11-06T05:31:25.526Z,5.00
2018-11-06T05:33:53.097Z,5.00
2018-11-06T05:36:20.685Z,5.00
2018-11-06T05:38:48.304Z,5.00
2018-11-06T05:41:15.903Z,5.00
2018-11-06T05:43:43.413Z,5.00
2018-11-06T05:46:11.025Z,4.90
2018-11-06T05:48:38.556Z,5.00
2018-11-06T05:51:06.177Z,4.90
2018-11-06T05:53:33.714Z,4.90
2018-11-06T05:56:01.346Z,4.90
2018-11-06T05:58:28.949Z,4.90
2018-11-06T06:00:56.494Z,4.90
2018-11-06T06:03:24.100Z,4.90
2018-11-06T06:05:51.707Z,4.90
2018-11-06T06:08:19.324Z,4.90
2018-11-06T06:10:46.874Z,4.90
2018-11-06T06:13:14.734Z,4.80
2018-11-06T06:15:42.324Z,4.90
2018-11-06T06:18:09.921Z,4.90
2018-11-06T06:20:44.122Z,4.90
2018-11-06T06:23:11.788Z,4.90
2018-11-06T06:25:39.305Z,4.90
2018-11-06T06:28:06.900Z,4.90
2018-11-06T06:30:34.609Z,4.80
2018-11-06T06:33:02.219Z,4.80
2018-11-06T06:35:29.800Z,4.80
2018-11-06T06:37:57.364Z,4.90
2018-11-06T06:40:24.915Z,4.90
2018-11-06T06:42:52.522Z,4.80
2018-11-06T06:45:20.151Z,4.80
2018-11-06T06:47:47.797Z,4.80
2018-11-06T06:50:16.685Z,4.80
2018-11-06T06:52:44.830Z,4.80
2018-11-06T06:55:13.405Z,4.80
2018-11-06T06:57:41.828Z,4.90
2018-11-06T07:00:11.424Z,4.90
2018-11-06T07:02:39.366Z,4.90
2018-11-06T07:05:08.207Z,5.00
2018-11-06T07:07:36.584Z,5.00
2018-11-06T07:10:05.771Z,5.10
2018-11-06T07:12:33.348Z,5.10
2018-11-06T07:15:00.942Z,5.20
2018-11-06T07:17:28.528Z,5.20
2018-11-06T07:19:56.068Z,5.20
2018-11-06T07:22:23.675Z,5.30
2018-11-06T07:24:51.238Z,5.30
2018-11-06T07:27:18.878Z,5.40
2018-11-06T07:29:46.492Z,5.40
2018-11-06T07:32:14.125Z,5.50
2018-11-06T07:34:41.818Z,5.60
2018-11-06T07:37:09.408Z,5.70
2018-11-06T07:39:36.978Z,5.70
2018-11-06T07:42:04.969Z,5.80
2018-11-06T07:44:32.586Z,5.90
2018-11-06T07:47:00.129Z,6.00
2018-11-06T07:49:27.780Z,6.00
2018-11-06T07:51:55.451Z,6.10
2018-11-06T07:54:22.985Z,6.20
2018-11-06T07:56:50.620Z,6.30
2018-11-06T07:59:18.201Z,6.40
2018-11-06T08:01:45.788Z,6.50
2018-11-06T08:04:13.400Z,6.60
2018-11-06T08:06:40.991Z,6.60
2018-11-06T08:09:09.125Z,6.80
2018-11-06T08:11:37.105Z,6.80
2018-11-06T08:14:04.711Z,7.00
2018-11-06T08:16:32.309Z,7.00
2018-11-06T08:18:59.928Z,7.20
2018-11-06T08:21:27.534Z,7.30
2018-11-06T08:23:55.092Z,7.30
2018-11-06T08:26:22.624Z,7.40
2018-11-06T08:28:50.170Z,7.50
2018-11-06T08:31:18.038Z,7.60
2018-11-06T08:33:45.413Z,7.70
2018-11-06T08:36:12.987Z,7.80
2018-11-06T08:38:40.626Z,7.80
2018-11-06T08:41:08.218Z,7.90
2018-11-06T08:43:35.850Z,8.00
2018-11-06T08:46:03.535Z,8.10
2018-11-06T08:48:31.160Z,8.20
2018-11-06T08:50:58.750Z,8.30
2018-11-06T08:53:26.331Z,8.40
2018-11-06T08:55:53.893Z,8.50
2018-11-06T08:58:21.561Z,8.60
2018-11-06T09:00:49.139Z,8.70
2018-11-06T09:03:16.742Z,8.80
2018-11-06T09:05:44.321Z,8.80
2018-11-06T09:08:11.959Z,9.00
2018-11-06T09:10:39.629Z,9.10
2018-11-06T09:13:07.203Z,9.20
2018-11-06T09:15:34.923Z,9.20
2018-11-06T09:18:02.549Z,9.30
2018-11-06T09:20:30.209Z,9.40
2018-11-06T09:22:57.799Z,9.40
2018-11-06T09:25:25.365Z,9.50
2018-11-06T09:27:53.023Z,9.60
2018-11-06T09:30:20.636Z,9.60
2018-11-06T09:32:48.271Z,9.70
2018-11-06T09:35:15.931Z,9.70
2018-11-06T09:37:44.143Z,9.80
2018-11-06T09:40:14.177Z,9.90
2018-11-06T09:42:41.849Z,9.90
2018-11-06T09:45:10.450Z,10.00
2018-11-06T09:47:37.891Z,10.10
2018-11-06T09:50:08.875Z,10.20
2018-11-06T09:52:36.481Z,10.20
2018-11-06T09:55:04.432Z,10.30
2018-11-06T09:57:32.010Z,10.30
2018-11-06T09:59:59.700Z,10.40
2018-11-06T10:02:27.337Z,10.40
2018-11-06T10:04:54.879Z,10.50
2018-11-06T10:07:22.643Z,10.50
2018-11-06T10:09:50.104Z,10.60
2018-11-06T10:12:17.761Z,10.60
2018-11-06T10:14:45.316Z,10.70
2018-11-06T10:17:12.972Z,10.70
2018-11-06T10:19:40.604Z,10.70
2018-11-06T10:22:08.272Z,10.80
2018-11-06T10:24:35.913Z,10.90
2018-11-06T10:27:03.534Z,10.90
2018-11-06T10:29:31.132Z,11.00
2018-11-06T10:31:58.974Z,11.00
2018-11-06T10:34:26.591Z,11.10
2018-11-06T10:36:54.180Z,11.20
2018-11-06T10:39:21.782Z,11.30
2018-11-06T10:41:49.388Z,11.30
2018-11-06T10:44:17.002Z,11.40
2018-11-06T10:46:44.539Z,11.50
2018-11-06T10:49:12.081Z,11.60
2018-11-06T10:51:39.744Z,11.60
2018-11-06T10:54:07.347Z,11.70
2018-11-06T10:56:34.944Z,11.80
2018-11-06T10:59:02.568Z,11.80
2018-11-06T11:01:35.909Z,11.80
2018-11-06T11:04:09.244Z,11.90
2018-11-06T11:06:36.824Z,12.00
2018-11-06T11:09:06.689Z,12.00
2018-11-06T11:11:34.282Z,12.10
2018-11-06T11:14:01.945Z,12.10
2018-11-06T11:16:29.466Z,12.20
2018-11-06T11:18:57.073Z,12.20
2018-11-06T11:21:24.681Z,12.30
2018-11-06T11:23:52.237Z,12.30
2018-11-06T11:26:19.838Z,12.40
2018-11-06T11:28:47.402Z,12.40
2018-11-06T11:31:14.989Z,12.50
2018-11-06T11:33:42.500Z,12.50
2018-11-06T11:36:10.148Z,12.50
2018-11-06T11:38:37.743Z,12.60
2018-11-06T11:41:05.353Z,12.60
2018-11-06T11:43:32.893Z,12.70
2018-11-06T11:46:00.552Z,12.70
2018-11-06T11:48:28.882Z,12.80
2018-11-06T11:50:56.432Z,12.80
2018-11-06T11:53:24.000Z,12.80
2018-11-06T11:55:51.611Z,12.90
2018-11-06T11:58:19.192Z,12.90
2018-11-06T12:00:46.873Z,13.00
2018-11-06T12:03:14.376Z,13.00
2018-11-06T12:05:42.040Z,13.00
2018-11-06T12:08:09.574Z,13.10
2018-11-06T12:10:37.125Z,13.10
2018-11-06T12:13:05.381Z,13.20
2018-11-06T12:15:32.941Z,13.20
2018-11-06T12:18:01.308Z,13.30
2018-11-06T12:20:28.847Z,13.30
2018-11-06T12:22:56.462Z,13.30
2018-11-06T12:25:24.414Z,13.40
2018-11-06T12:27:51.682Z,13.40
2018-11-06T12:30:19.212Z,13.50
2018-11-06T12:32:46.853Z,13.50
2018-11-06T12:35:15.332Z,13.50
2018-11-06T12:37:42.953Z,13.50
2018-11-06T12:40:11.536Z,13.50
2018-11-06T12:42:39.552Z,13.60
2018-11-06T12:45:08.841Z,13.60
2018-11-06T12:47:36.544Z,13.60
2018-11-06T12:50:04.674Z,13.70
2018-11-06T12:52:32.314Z,13.70
2018-11-06T12:54:59.884Z,13.80
2018-11-06T12:57:27.404Z,13.80
2018-11-06T12:59:54.954Z,13.80
2018-11-06T13:02:22.579Z,13.90
2018-11-06T13:04:50.114Z,13.80
2018-11-06T13:07:17.707Z,13.90
2018-11-06T13:09:45.336Z,13.90
2018-11-06T13:12:12.823Z,13.90
2018-11-06T13:14:40.477Z,13.90
2018-11-06T13:17:08.123Z,13.90
2018-11-06T13:19:35.646Z,13.90
2018-11-06T13:22:03.226Z,13.90
2018-11-06T13:24:30.880Z,13.90
2018-11-06T13:26:58.447Z,14.00
2018-11-06T13:29:26.023Z,13.90
2018-11-06T13:31:53.640Z,14.00
2018-11-06T13:34:21.229Z,13.90
2018-11-06T13:36:48.751Z,14.00
2018-11-06T13:39:16.269Z,14.00
2018-11-06T13:41:43.883Z,14.00
2018-11-06T13:44:11.838Z,14.00
2018-11-06T13:46:39.152Z,14.00
2018-11-06T13:49:06.751Z,14.00
2018-11-06T13:51:34.377Z,14.10
2018-11-06T13:54:01.926Z,14.10
2018-11-06T13:56:29.543Z,14.00
2018-11-06T13:58:57.151Z,14.00
2018-11-06T14:01:24.723Z,14.00
2018-11-06T14:03:52.257Z,14.00
2018-11-06T14:06:19.818Z,14.00
2018-11-06T14:08:47.372Z,14.00
2018-11-06T14:11:14.905Z,14.00
2018-11-06T14:13:42.471Z,14.00
2018-11-06T14:16:09.990Z,13.90
2018-11-06T14:18:37.600Z,13.90
2018-11-06T14:21:05.351Z,13.90
2018-11-06T14:23:32.898Z,13.90
2018-11-06T14:26:00.530Z,13.80
2018-11-06T14:28:28.078Z,13.80
2018-11-06T14:30:55.649Z,13.80
2018-11-06T14:33:23.176Z,13.70
2018-11-06T14:35:50.899Z,13.70
2018-11-06T14:38:18.432Z,13.70
2018-11-06T14:40:46.045Z,13.60
2018-11-06T14:43:13.582Z,13.60
2018-11-06T14:45:41.127Z,13.60
2018-11-06T14:48:08.700Z,13.60
2018-11-06T14:50:36.285Z,13.50
2018-11-06T14:53:04.024Z,13.50
2018-11-06T14:55:31.540Z,13.50
2018-11-06T14:57:59.021Z,13.40
2018-11-06T15:00:26.638Z,13.40
2018-11-06T15:02:54.172Z,13.30
2018-11-06T15:05:22.254Z,13.30
2018-11-06T15:07:49.841Z,13.30
2018-11-06T15:10:17.621Z,13.20
2018-11-06T15:12:45.541Z,13.20
2018-11-06T15:15:13.819Z,13.10
2018-11-06T15:17:42.581Z,13.10
2018-11-06T15:20:12.518Z,13.00
2018-11-06T15:22:40.491Z,13.00
2018-11-06T15:25:09.127Z,12.90
2018-11-06T15:27:36.743Z,12.90
2018-11-06T15:30:05.326Z,12.80
2018-11-06T15:32:32.977Z,12.70
2018-11-06T15:35:00.579Z,12.70
2018-11-06T15:37:28.087Z,12.60
2018-11-06T15:39:55.723Z,12.60
2018-11-06T15:42:23.291Z,12.50
2018-11-06T15:44:50.873Z,12.50
2018-11-06T15:47:18.345Z,12.50
2018-11-06T15:49:45.944Z,12.30
2018-11-06T15:52:13.528Z,12.30
2018-11-06T15:54:41.250Z,12.20
2018-11-06T15:57:08.866Z,12.10
2018-11-06T15:59:36.396Z,12.10
2018-11-06T16:02:04.242Z,12.00
2018-11-06T16:04:31.769Z,12.00
2018-11-06T16:06:59.314Z,11.90
2018-11-06T16:09:26.911Z,12.00
2018-11-06T16:11:54.464Z,12.00
2018-11-06T16:14:22.008Z,11.90
2018-11-06T16:16:49.608Z,11.90
2018-11-06T16:19:17.207Z,11.90
2018-11-06T16:21:44.826Z,11.90
2018-11-06T16:24:12.423Z,11.90
2018-11-06T16:26:39.917Z,11.90
2018-11-06T16:29:07.700Z,11.90
2018-11-06T16:31:35.312Z,11.90
2018-11-06T16:34:02.826Z,11.90
2018-11-06T16:36:30.392Z,11.90
2018-11-06T16:38:57.939Z,11.90
2018-11-06T16:41:25.550Z,11.90
2018-11-06T16:43:53.181Z,11.80
2018-11-06T16:46:20.739Z,11.80
2018-11-06T16:48:48.272Z,11.80
2018-11-06T16:51:15.902Z,11.80
2018-11-06T16:53:43.455Z,11.80
2018-11-06T16:56:11.065Z,11.70
2018-11-06T16:58:38.682Z,11.70
2018-11-06T17:01:06.490Z,11.70
2018-11-06T17:03:33.936Z,11.70
2018-11-06T17:06:01.507Z,11.70
2018-11-06T17:08:29.050Z,11.70
2018-11-06T17:10:56.612Z,11.60
2018-11-06T17:13:24.206Z,11.60
2018-11-06T17:15:51.729Z,11.60
2018-11-06T17:18:19.265Z,11.50
2018-11-06T17:20:46.822Z,11.40
2018-11-06T17:23:14.413Z,11.30
2018-11-06T17:25:42.056Z,11.20
2018-11-06T17:28:09.584Z,11.20
2018-11-06T17:30:37.167Z,11.20
2018-11-06T17:33:04.815Z,11.10
2018-11-06T17:35:32.374Z,11.10
2018-11-06T17:37:59.940Z,11.00
2018-11-06T17:40:27.516Z,10.90
2018-11-06T17:42:55.136Z,10.90
2018-11-06T17:45:23.523Z,10.90
2018-11-06T17:47:51.143Z,10.80
2018-11-06T17:50:18.745Z,10.70
2018-11-06T17:52:46.395Z,10.70
2018-11-06T17:55:15.541Z,10.70
2018-11-06T17:57:42.990Z,10.60
2018-11-06T18:00:17.431Z,10.60
2018-11-06T18:02:45.185Z,10.60
2018-11-06T18:05:13.635Z,10.50
2018-11-06T18:07:41.986Z,10.50
2018-11-06T18:10:11.435Z,10.40
2018-11-06T18:12:38.968Z,10.40
2018-11-06T18:15:06.650Z,10.40
2018-11-06T18:17:34.303Z,10.40
2018-11-06T18:20:01.842Z,10.40
2018-11-06T18:22:29.454Z,10.30
2018-11-06T18:24:57.053Z,10.30
2018-11-06T18:27:24.622Z,10.30
2018-11-06T18:29:52.432Z,10.20
2018-11-06T18:32:20.149Z,10.20
2018-11-06T18:34:47.665Z,10.20
2018-11-06T18:37:15.223Z,10.20
2018-11-06T18:39:42.753Z,10.10
2018-11-06T18:42:10.305Z,10.10
2018-11-06T18:44:37.934Z,10.10
2018-11-06T18:47:05.589Z,10.10
2018-11-06T18:49:39.823Z,10.10
2018-11-06T18:52:07.656Z,10.10
2018-11-06T18:54:35.203Z,10.10
2018-11-06T18:57:02.779Z,10.10
2018-11-06T18:59:30.338Z,10.00
2018-11-06T19:01:57.919Z,10.00
2018-11-06T19:04:25.542Z,10.00
2018-11-06T19:06:53.042Z,10.00
2018-11-06T19:09:20.656Z,10.00
2018-11-06T19:11:48.269Z,9.90
2018-11-06T19:14:15.825Z,9.90
2018-11-06T19:16:43.431Z,9.90
2018-11-06T19:19:10.931Z,9.90
2018-11-06T19:21:38.599Z,9.90
2018-11-06T19:24:06.286Z,9.80
2018-11-06T19:26:33.731Z,9.80
2018-11-06T19:29:01.281Z,9.80
2018-11-06T19:31:28.907Z,9.70
2018-11-06T19:33:56.535Z,9.70
2018-11-06T19:36:24.162Z,9.70
2018-11-06T19:38:51.750Z,9.70
2018-11-06T19:41:19.306Z,9.60
2018-11-06T19:43:46.885Z,9.60
2018-11-06T19:46:14.498Z,9.60
2018-11-06T19:48:42.039Z,9.60
2018-11-06T19:51:09.614Z,9.50
2018-11-06T19:53:37.214Z,9.50
2018-11-06T19:56:05.119Z,9.50
2018-11-06T19:58:32.700Z,9.40
2018-11-06T20:01:00.355Z,9.40
2018-11-06T20:03:28.074Z,9.40
2018-11-06T20:05:55.899Z,9.30
2018-11-06T20:08:23.379Z,9.30
2018-11-06T20:10:51.012Z,9.30
2018-11-06T20:13:18.570Z,9.30
2018-11-06T20:15:46.228Z,9.20
2018-11-06T20:18:13.748Z,9.20
2018-11-06T20:20:48.353Z,9.20
2018-11-06T20:23:15.947Z,9.20
2018-11-06T20:25:43.506Z,9.10
2018-11-06T20:28:11.099Z,9.10
2018-11-06T20:30:38.662Z,9.00
2018-11-06T20:33:06.347Z,9.00
2018-11-06T20:35:33.908Z,9.00
2018-11-06T20:38:01.650Z,9.00
2018-11-06T20:40:29.100Z,9.00
2018-11-06T20:42:56.768Z,8.90
2018-11-06T20:45:24.271Z,8.90
2018-11-06T20:47:51.934Z,8.90
2018-11-06T20:50:21.160Z,8.90
2018-11-06T20:52:48.859Z,8.80
2018-11-06T20:55:17.049Z,8.80
2018-11-06T20:57:44.646Z,8.80
2018-11-06T21:00:30.198Z,8.80
2018-11-06T21:02:59.132Z,8.80
2018-11-06T21:05:26.754Z,8.80
2018-11-06T21:07:54.418Z,8.80
2018-11-06T21:10:23.425Z,8.80
2018-11-06T21:12:51.068Z,8.80
2018-11-06T21:15:18.638Z,8.80
2018-11-06T21:17:46.284Z,8.80
2018-11-06T21:20:14.519Z,8.70
2018-11-06T21:22:42.152Z,8.70
2018-11-06T21:25:10.183Z,8.70
2018-11-06T21:27:38.638Z,8.60
2018-11-06T21:30:08.649Z,8.70
2018-11-06T21:32:36.213Z,8.70
2018-11-06T21:35:04.235Z,8.70
2018-11-06T21:37:31.836Z,8.70
2018-11-06T21:39:59.409Z,8.70
2018-11-06T21:42:26.974Z,8.60
2018-11-06T21:44:54.567Z,8.60
2018-11-06T21:47:22.098Z,8.70
2018-11-06T21:49:49.700Z,8.60
2018-11-06T21:52:17.317Z,8.60
2018-11-06T21:54:44.980Z,8.60
2018-11-06T21:57:12.579Z,8.60
2018-11-06T21:59:40.254Z,8.60
2018-11-06T22:02:07.864Z,8.60
2018-11-06T22:04:35.448Z,8.50
2018-11-06T22:07:03.090Z,8.50
2018-11-06T22:09:30.751Z,8.50
2018-11-06T22:11:58.434Z,8.50
2018-11-06T22:14:25.957Z,8.40
2018-11-06T22:16:53.544Z,8.40
2018-11-06T22:19:21.098Z,8.40
2018-11-06T22:21:48.692Z,8.40
2018-11-06T22:24:16.306Z,8.40
2018-11-06T22:26:43.880Z,8.40
2018-11-06T22:29:11.503Z,8.40
2018-11-06T22:31:39.242Z,8.40
2018-11-06T22:34:06.687Z,8.30
2018-11-06T22:36:35.073Z,8.30
2018-11-06T22:39:03.649Z,8.30
2018-11-06T22:41:31.262Z,8.20
2018-11-06T22:43:58.923Z,8.20
2018-11-06T22:46:26.460Z,8.20
2018-11-06T22:48:54.103Z,8.20
2018-11-06T22:51:21.752Z,8.20
2018-11-06T22:53:49.332Z,8.10
2018-11-06T22:56:16.964Z,8.10
2018-11-06T22:58:44.591Z,8.10
2018-11-06T23:01:17.147Z,8.10
2018-11-06T23:03:45.371Z,8.10
2018-11-06T23:06:13.191Z,8.10
2018-11-06T23:08:40.656Z,8.10
2018-11-06T23:11:08.277Z,8.10
2018-11-06T23:13:35.892Z,8.00
2018-11-06T23:16:03.490Z,8.00
2018-11-06T23:18:31.080Z,8.00
2018-11-06T23:20:58.681Z,8.00
2018-11-06T23:23:26.268Z,8.00
2018-11-06T23:25:53.842Z,7.90
2018-11-06T23:28:21.429Z,7.90
2018-11-06T23:30:48.997Z,7.90
2018-11-06T23:33:16.642Z,7.90
2018-11-06T23:35:44.202Z,7.90
2018-11-06T23:38:11.813Z,7.90
2018-11-06T23:40:39.393Z,7.90
2018-11-06T23:43:07.051Z,7.80
2018-11-06T23:45:34.545Z,7.80
2018-11-06T23:48:02.157Z,7.80
2018-11-06T23:50:29.805Z,7.80
2018-11-06T23:52:57.360Z,7.80
2018-11-06T23:55:24.982Z,7.70
2018-11-06T23:57:52.606Z,7.70
